createdAt,value
2017-10-27T00:01:49.622Z,67.87
2017-10-27T00:04:20.133Z,69.87
2017-10-27T00:06:50.561Z,67.80
2017-10-27T00:09:21.631Z,68.15
2017-10-27T00:11:51.853Z,64.90
2017-10-27T00:14:21.974Z,67.55
2017-10-27T00:16:51.936Z,65.50
2017-10-27T00:19:22.111Z,56.05
2017-10-27T00:21:52.275Z,57.62
2017-10-27T00:24:24.539Z,56.05
2017-10-27T00:26:54.155Z,52.90
2017-10-27T00:29:23.996Z,52.20
2017-10-27T00:31:56.499Z,63.63
2017-10-27T00:34:27.198Z,67.82
2017-10-27T00:36:58.440Z,66.87
2017-10-27T00:39:31.296Z,55.50
2017-10-27T00:42:01.576Z,48.80
2017-10-27T00:44:31.156Z,58.63
2017-10-27T00:47:02.190Z,49.22
2017-10-27T00:49:35.101Z,50.63
2017-10-27T00:52:05.407Z,57.92
2017-10-27T00:54:35.607Z,59.00
2017-10-27T00:57:06.257Z,61.58
2017-10-27T00:59:39.554Z,50.08
2017-10-27T01:02:10.673Z,49.67
2017-10-27T01:04:41.099Z,69.70
2017-10-27T01:07:11.356Z,54.50
2017-10-27T01:09:43.465Z,47.58
2017-10-27T01:12:15.560Z,67.37
2017-10-27T01:14:46.051Z,47.50
2017-10-27T01:17:16.205Z,57.05
2017-10-27T01:19:46.554Z,52.40
2017-10-27T01:22:17.079Z,66.68
2017-10-27T01:24:48.098Z,56.72
2017-10-27T01:27:19.939Z,65.22
2017-10-27T01:29:50.167Z,56.78
2017-10-27T01:32:22.416Z,56.50
2017-10-27T01:34:54.627Z,52.92
2017-10-27T01:37:27.594Z,60.97
2017-10-27T01:39:59.797Z,66.47
2017-10-27T01:42:30.124Z,49.97
2017-10-27T01:45:02.284Z,47.88
2017-10-27T01:47:35.384Z,65.20
2017-10-27T01:50:07.324Z,57.30
2017-10-27T01:52:40.375Z,52.50
2017-10-27T01:55:12.448Z,52.45
2017-10-27T01:57:44.765Z,58.25
2017-10-27T02:00:15.711Z,54.20
2017-10-27T02:02:47.569Z,65.35
2017-10-27T02:05:18.069Z,58.47
2017-10-27T02:07:49.112Z,45.47
2017-10-27T02:10:22.038Z,51.25
2017-10-27T02:12:54.252Z,45.83
2017-10-27T02:15:26.279Z,51.10
2017-10-27T02:17:58.503Z,52.60
2017-10-27T02:20:31.228Z,46.75
2017-10-27T02:23:03.223Z,58.60
2017-10-27T02:25:35.233Z,44.08
2017-10-27T02:28:05.334Z,43.00
2017-10-27T02:30:36.414Z,50.88
2017-10-27T02:33:06.164Z,55.35
2017-10-27T02:35:38.277Z,50.25
2017-10-27T02:38:10.583Z,52.50
2017-10-27T02:40:42.627Z,42.67
2017-10-27T02:43:13.074Z,57.75
2017-10-27T02:45:43.225Z,67.82
2017-10-27T02:48:14.338Z,60.40
2017-10-27T02:50:46.213Z,57.03
2017-10-27T02:53:16.620Z,44.58
2017-10-27T02:55:48.463Z,52.65
2017-10-27T02:58:18.645Z,55.42
2017-10-27T03:00:48.831Z,61.40
2017-10-27T03:03:19.284Z,50.50
2017-10-27T03:05:50.150Z,60.30
2017-10-27T03:08:20.506Z,56.80
2017-10-27T03:10:50.723Z,49.72
2017-10-27T03:13:21.025Z,55.15
2017-10-27T03:15:51.382Z,52.62
2017-10-27T03:18:21.055Z,44.78
2017-10-27T03:20:50.819Z,42.45
2017-10-27T03:23:21.204Z,49.90
2017-10-27T03:25:51.549Z,45.60
2017-10-27T03:28:21.910Z,48.47
2017-10-27T03:30:54.587Z,59.85
2017-10-27T03:33:24.923Z,48.58
2017-10-27T03:35:55.117Z,37.75
2017-10-27T03:38:25.672Z,47.95
2017-10-27T03:40:56.020Z,51.00
2017-10-27T03:43:26.165Z,45.47
2017-10-27T03:45:56.477Z,52.88
2017-10-27T03:48:26.946Z,43.42
2017-10-27T03:50:59.865Z,57.25
2017-10-27T03:53:31.904Z,51.00
2017-10-27T03:56:03.201Z,43.90
2017-10-27T03:58:35.315Z,48.13
2017-10-27T04:01:08.053Z,46.45
2017-10-27T04:03:39.906Z,39.97
2017-10-27T04:06:09.697Z,43.53
2017-10-27T04:08:39.846Z,38.17
2017-10-27T04:11:09.742Z,44.25
2017-10-27T04:13:39.904Z,43.85
2017-10-27T04:16:10.433Z,38.92
2017-10-27T04:18:40.748Z,44.25
2017-10-27T04:21:10.464Z,43.80
2017-10-27T04:23:40.468Z,44.10
2017-10-27T04:26:10.209Z,32.63
2017-10-27T04:28:42.675Z,42.75
2017-10-27T04:31:13.377Z,42.75
2017-10-27T04:33:43.569Z,42.83
2017-10-27T04:36:15.341Z,43.85
2017-10-27T04:38:45.457Z,41.20
2017-10-27T04:41:18.170Z,34.85
2017-10-27T04:43:48.662Z,38.85
2017-10-27T04:46:18.307Z,34.63
2017-10-27T04:48:48.459Z,40.12
2017-10-27T04:51:19.116Z,45.63
2017-10-27T04:53:49.571Z,33.20
2017-10-27T04:56:19.859Z,48.85
2017-10-27T04:58:49.577Z,35.72
2017-10-27T05:01:21.534Z,30.92
2017-10-27T05:03:53.409Z,33.60
2017-10-27T05:06:24.289Z,37.35
2017-10-27T05:08:55.196Z,25.85
2017-10-27T05:11:25.014Z,31.92
2017-10-27T05:13:54.871Z,41.95
2017-10-27T05:16:30.336Z,30.20
2017-10-27T05:19:05.702Z,28.27
2017-10-27T05:21:40.936Z,33.83
2017-10-27T05:24:16.865Z,26.95
2017-10-27T05:26:46.923Z,31.67
2017-10-27T05:29:16.780Z,29.60
2017-10-27T05:31:49.884Z,30.33
2017-10-27T05:34:20.329Z,29.77
2017-10-27T05:36:50.138Z,31.25
2017-10-27T05:39:21.100Z,31.17
2017-10-27T05:41:50.878Z,38.72
2017-10-27T05:44:22.717Z,25.15
2017-10-27T05:46:54.505Z,36.53
2017-10-27T05:49:24.892Z,36.50
2017-10-27T05:51:56.109Z,28.17
2017-10-27T05:54:26.623Z,27.58
2017-10-27T05:56:58.585Z,30.10
2017-10-27T05:59:28.161Z,27.83
2017-10-27T06:01:58.192Z,25.45
2017-10-27T06:04:28.042Z,24.17
2017-10-27T06:06:58.903Z,28.70
2017-10-27T06:09:29.951Z,20.95
2017-10-27T06:12:01.483Z,20.55
2017-10-27T06:14:31.405Z,28.77
2017-10-27T06:17:02.006Z,18.25
2017-10-27T06:19:32.389Z,17.83
2017-10-27T06:22:02.208Z,19.02
2017-10-27T06:24:32.136Z,19.60
2017-10-27T06:27:01.912Z,19.73
2017-10-27T06:29:34.680Z,14.75
2017-10-27T06:32:05.572Z,20.20
2017-10-27T06:34:35.331Z,16.10
2017-10-27T06:37:05.832Z,17.27
2017-10-27T06:39:36.415Z,23.20
2017-10-27T06:42:06.566Z,15.23
2017-10-27T06:44:38.687Z,20.70
2017-10-27T06:47:08.535Z,18.35
2017-10-27T06:49:38.863Z,37.33
2017-10-27T06:52:09.280Z,23.27
2017-10-27T06:54:39.167Z,19.10
2017-10-27T06:57:11.381Z,15.27
2017-10-27T06:59:41.753Z,15.55
2017-10-27T07:02:12.784Z,19.95
2017-10-27T07:04:45.517Z,22.95
2017-10-27T07:07:16.034Z,9.75
2017-10-27T07:09:47.350Z,21.05
2017-10-27T07:12:20.471Z,19.35
2017-10-27T07:14:53.619Z,16.20
2017-10-27T07:17:24.208Z,13.40
2017-10-27T07:19:54.467Z,12.68
2017-10-27T07:22:25.640Z,14.48
2017-10-27T07:24:55.429Z,19.85
2017-10-27T07:27:26.566Z,12.73
2017-10-27T07:29:59.239Z,15.52
2017-10-27T07:32:32.413Z,19.23
2017-10-27T07:35:06.173Z,14.13
2017-10-27T07:37:38.539Z,18.33
2017-10-27T07:40:10.823Z,14.98
2017-10-27T07:42:42.978Z,17.73
2017-10-27T07:45:14.982Z,25.65
2017-10-27T07:47:47.141Z,12.80
2017-10-27T07:50:19.699Z,11.75
2017-10-27T07:52:51.651Z,14.85
2017-10-27T07:55:23.990Z,15.10
2017-10-27T07:57:54.974Z,17.30
2017-10-27T08:00:27.611Z,18.30
2017-10-27T08:03:00.317Z,11.52
2017-10-27T08:05:30.630Z,18.23
2017-10-27T08:08:02.709Z,10.43
2017-10-27T08:10:35.077Z,9.55
2017-10-27T08:13:07.476Z,12.52
2017-10-27T08:15:41.107Z,13.65
2017-10-27T08:18:11.211Z,24.87
2017-10-27T08:20:43.679Z,14.77
2017-10-27T08:23:15.929Z,18.00
2017-10-27T08:25:48.157Z,14.95
2017-10-27T08:28:21.085Z,15.85
2017-10-27T08:30:51.588Z,17.08
2017-10-27T08:33:22.197Z,11.27
2017-10-27T08:35:55.549Z,10.63
2017-10-27T08:38:27.529Z,16.35
2017-10-27T08:40:59.987Z,8.68
2017-10-27T08:43:32.045Z,19.92
2017-10-27T08:46:04.451Z,12.35
2017-10-27T08:48:36.841Z,16.08
2017-10-27T08:51:09.872Z,11.85
2017-10-27T08:53:40.198Z,17.67
2017-10-27T08:56:12.758Z,15.80
2017-10-27T08:58:44.987Z,17.95
2017-10-27T09:01:16.022Z,11.18
2017-10-27T09:03:48.279Z,9.93
2017-10-27T09:06:18.695Z,15.25
2017-10-27T09:08:51.052Z,12.45
2017-10-27T09:11:23.376Z,10.90
2017-10-27T09:13:56.746Z,9.05
2017-10-27T09:16:29.120Z,12.25
2017-10-27T09:19:02.197Z,14.70
2017-10-27T09:21:34.747Z,20.08
2017-10-27T09:24:07.000Z,11.50
2017-10-27T09:26:39.605Z,14.35
2017-10-27T09:29:11.882Z,13.85
2017-10-27T09:31:43.966Z,11.98
2017-10-27T09:34:16.512Z,11.25
2017-10-27T09:36:49.074Z,12.02
2017-10-27T09:39:21.422Z,12.10
2017-10-27T09:41:53.611Z,15.67
2017-10-27T09:44:25.891Z,12.37
2017-10-27T09:46:56.788Z,6.90
2017-10-27T09:49:30.214Z,7.73
2017-10-27T09:52:02.806Z,10.63
2017-10-27T09:54:35.238Z,18.40
2017-10-27T09:57:08.230Z,18.77
2017-10-27T09:59:41.159Z,13.53
2017-10-27T10:02:13.395Z,11.33
2017-10-27T10:04:45.787Z,11.77
2017-10-27T10:07:18.351Z,8.87
2017-10-27T10:09:50.753Z,11.00
2017-10-27T10:12:23.018Z,24.23
2017-10-27T10:14:56.012Z,12.60
2017-10-27T10:17:28.343Z,10.60
2017-10-27T10:19:58.616Z,9.13
2017-10-27T10:22:32.806Z,9.80
2017-10-27T10:25:05.594Z,13.67
2017-10-27T10:27:38.140Z,6.33
2017-10-27T10:30:10.583Z,3.10
2017-10-27T10:32:45.308Z,17.63
2017-10-27T10:35:18.521Z,15.57
2017-10-27T10:37:51.170Z,7.43
2017-10-27T10:40:23.395Z,13.30
2017-10-27T10:42:55.503Z,8.17
2017-10-27T10:45:27.632Z,7.40
2017-10-27T10:48:00.707Z,6.57
2017-10-27T10:50:33.372Z,10.50
2017-10-27T10:53:03.551Z,11.57
2017-10-27T10:55:33.725Z,7.85
2017-10-27T10:58:06.352Z,9.63
2017-10-27T11:00:37.315Z,9.77
2017-10-27T11:03:10.369Z,11.90
2017-10-27T11:05:42.884Z,11.43
2017-10-27T11:08:16.159Z,9.10
2017-10-27T11:10:49.568Z,10.60
2017-10-27T11:13:21.498Z,13.53
2017-10-27T11:15:53.922Z,9.10
2017-10-27T11:18:26.778Z,8.80
2017-10-27T11:20:59.964Z,7.03
2017-10-27T11:23:32.364Z,5.20
2017-10-27T11:26:04.829Z,9.13
2017-10-27T11:28:37.674Z,11.40
2017-10-27T11:31:08.187Z,8.00
2017-10-27T11:33:40.745Z,16.33
2017-10-27T11:36:12.152Z,11.77
2017-10-27T11:38:45.528Z,20.63
2017-10-27T11:41:18.069Z,28.57
2017-10-27T11:43:51.123Z,6.90
2017-10-27T11:46:23.385Z,9.00
2017-10-27T11:48:56.439Z,6.83
2017-10-27T11:51:28.698Z,8.47
2017-10-27T11:53:59.534Z,13.23
2017-10-27T11:56:29.818Z,14.67
2017-10-27T11:59:02.238Z,12.97
2017-10-27T12:01:34.685Z,8.60
2017-10-27T12:04:05.388Z,5.10
2017-10-27T12:06:36.590Z,9.87
2017-10-27T12:09:09.013Z,11.10
2017-10-27T12:11:42.343Z,11.07
2017-10-27T12:14:12.928Z,6.47
2017-10-27T12:16:45.281Z,10.07
2017-10-27T12:19:16.567Z,8.90
2017-10-27T12:21:47.431Z,6.60
2017-10-27T12:24:21.026Z,12.10
2017-10-27T12:26:53.328Z,10.23
2017-10-27T12:29:26.144Z,7.00
2017-10-27T12:31:59.243Z,8.17
2017-10-27T12:34:32.140Z,7.20
2017-10-27T12:37:06.370Z,5.70
2017-10-27T12:39:47.585Z,13.13
2017-10-27T12:51:12.097Z,10.37
2017-10-27T12:53:52.852Z,6.13
2017-10-27T12:56:27.336Z,7.23
2017-10-27T12:59:05.774Z,11.50
2017-10-27T13:01:46.998Z,23.27
2017-10-27T13:04:27.296Z,5.70
2017-10-27T13:07:25.078Z,4.93
2017-10-27T13:10:07.860Z,11.30
2017-10-27T13:12:39.587Z,8.03
2017-10-27T13:15:14.855Z,8.57
2017-10-27T13:20:52.357Z,8.17
2017-10-27T13:23:27.278Z,15.97
2017-10-27T13:26:00.946Z,6.10
2017-10-27T13:28:33.273Z,6.93
2017-10-27T13:31:07.479Z,8.10
2017-10-27T13:33:38.345Z,7.93
2017-10-27T13:36:10.072Z,8.93
2017-10-27T13:38:45.245Z,8.25
2017-10-27T13:41:16.684Z,8.18
2017-10-27T13:43:50.736Z,7.95
2017-10-27T13:46:22.612Z,11.88
2017-10-27T13:48:55.871Z,12.10
2017-10-27T13:51:27.086Z,6.93
2017-10-27T13:53:58.410Z,6.93
2017-10-27T13:56:30.064Z,6.68
2017-10-27T13:58:59.355Z,10.45
2017-10-27T14:01:39.432Z,7.43
2017-10-27T14:04:22.243Z,6.93
2017-10-27T14:07:01.185Z,8.38
2017-10-27T14:09:41.001Z,16.75
2017-10-27T14:12:22.998Z,6.45
2017-10-27T14:15:06.139Z,16.60
2017-10-27T14:17:42.622Z,18.50
2017-10-27T14:20:25.757Z,7.15
2017-10-27T14:23:04.605Z,18.45
2017-10-27T14:25:39.445Z,10.43
2017-10-27T14:28:20.573Z,8.05
2017-10-27T14:31:05.665Z,12.65
2017-10-27T14:33:39.016Z,6.25
2017-10-27T14:36:16.618Z,12.15
2017-10-27T14:38:57.892Z,12.05
2017-10-27T14:41:37.218Z,6.15
2017-10-27T14:44:17.061Z,6.20
2017-10-27T14:46:53.909Z,7.62
2017-10-27T14:49:32.403Z,12.57
2017-10-27T14:52:14.687Z,10.30
2017-10-27T14:54:58.897Z,7.90
2017-10-27T14:57:44.590Z,7.03
2017-10-27T15:00:18.790Z,20.92
2017-10-27T15:02:57.384Z,10.27
2017-10-27T15:05:38.900Z,7.95
2017-10-27T15:08:22.930Z,9.93
2017-10-27T15:11:06.342Z,3.28
2017-10-27T15:13:46.094Z,13.95
2017-10-27T15:16:25.481Z,12.05
2017-10-27T15:19:09.478Z,16.52
2017-10-27T15:21:47.063Z,9.15
2017-10-27T15:24:26.775Z,6.35
2017-10-27T15:27:05.769Z,5.53
2017-10-27T15:29:42.374Z,8.93
2017-10-27T15:32:15.812Z,11.40
2017-10-27T15:34:56.056Z,6.30
2017-10-27T15:37:35.016Z,7.45
2017-10-27T15:40:09.897Z,10.60
2017-10-27T15:42:50.408Z,12.52
2017-10-27T15:45:29.023Z,9.25
2017-10-27T15:48:07.559Z,12.32
2017-10-27T15:50:42.056Z,10.95
2017-10-27T15:53:21.383Z,8.45
2017-10-27T15:56:00.997Z,11.60
2017-10-27T15:58:40.985Z,12.05
2017-10-27T16:01:19.585Z,7.75
2017-10-27T16:03:59.533Z,11.73
2017-10-27T16:06:38.889Z,14.95
2017-10-27T16:09:17.594Z,11.65
2017-10-27T16:11:51.566Z,14.45
2017-10-27T16:14:34.311Z,22.92
2017-10-27T16:17:17.363Z,22.77
2017-10-27T16:19:57.183Z,15.55
2017-10-27T16:22:39.025Z,11.73
2017-10-27T16:25:20.512Z,10.30
2017-10-27T16:28:02.116Z,13.50
2017-10-27T16:30:40.496Z,12.77
2017-10-27T16:33:20.111Z,8.80
2017-10-27T16:35:59.752Z,13.00
2017-10-27T16:38:37.608Z,11.30
2017-10-27T16:41:11.717Z,11.57
2017-10-27T16:43:46.021Z,9.50
2017-10-27T16:46:24.836Z,15.13
2017-10-27T16:49:03.954Z,17.85
2017-10-27T16:51:43.460Z,18.70
2017-10-27T16:54:23.286Z,22.30
2017-10-27T16:57:02.851Z,9.88
2017-10-27T16:59:38.339Z,12.48
2017-10-27T17:02:11.579Z,12.70
2017-10-27T17:04:52.249Z,12.07
2017-10-27T17:07:30.705Z,11.70
2017-10-27T17:10:04.514Z,9.07
2017-10-27T17:12:49.665Z,15.75
2017-10-27T17:15:28.009Z,18.70
2017-10-27T17:18:09.300Z,21.87
2017-10-27T17:20:47.184Z,16.08
2017-10-27T17:23:21.658Z,14.93
2017-10-27T17:26:02.219Z,10.57
2017-10-27T17:28:43.586Z,11.73
2017-10-27T17:31:26.338Z,13.98
2017-10-27T17:34:00.632Z,13.60
2017-10-27T17:36:40.236Z,13.95
2017-10-27T17:39:19.242Z,14.73
2017-10-27T17:42:00.830Z,18.98
2017-10-27T17:44:41.825Z,13.15
2017-10-27T17:47:19.476Z,17.08
2017-10-27T17:49:53.386Z,7.80
2017-10-27T17:52:37.519Z,12.55
2017-10-27T17:55:16.244Z,15.52
2017-10-27T17:57:54.094Z,13.50
2017-10-27T18:00:34.111Z,8.18
2017-10-27T18:03:12.305Z,10.50
2017-10-27T18:05:53.903Z,12.10
2017-10-27T18:08:35.084Z,11.88
2017-10-27T18:11:16.275Z,10.27
2017-10-27T18:13:54.047Z,12.82
2017-10-27T18:16:29.135Z,18.75
2017-10-27T18:19:09.343Z,15.75
2017-10-27T18:21:46.570Z,11.30
2017-10-27T18:24:25.550Z,8.27
2017-10-27T18:27:05.801Z,20.62
2017-10-27T18:29:45.889Z,11.27
